sensor_id;sensor_type;location;lat;lon;timestamp;temperature;humidity
3860;DHT22;1945;52.036;8.614;2022-10-16T00:02:19;13.20;99.90
3860;DHT22;1945;52.036;8.614;2022-10-16T00:04:46;13.10;99.90
3860;DHT22;1945;52.036;8.614;2022-10-16T00:07:12;13.20;99.90
3860;DHT22;1945;52.036;8.614;2022-10-16T00:09:39;13.20;99.90
3860;DHT22;1945;52.036;8.614;2022-10-16T00:12:07;13.10;99.90
3860;DHT22;1945;52.036;8.614;2022-10-16T00:14:34;13.10;99.90
3860;DHT22;1945;52.036;8.614;2022-10-16T00:17:01;13.10;99.90
3860;DHT22;1945;52.036;8.614;2022-10-16T00:19:29;13.10;99.90
3860;DHT22;1945;52.036;8.614;2022-10-16T00:21:55;13.10;99.90
3860;DHT22;1945;52.036;8.614;2022-10-16T00:24:22;13.10;99.90
3860;DHT22;1945;52.036;8.614;2022-10-16T00:26:49;13.10;99.90
3860;DHT22;1945;52.036;8.614;2022-10-16T00:29:17;13.10;99.90
3860;DHT22;1945;52.036;8.614;2022-10-16T00:31:44;13.00;99.90
3860;DHT22;1945;52.036;8.614;2022-10-16T00:34:11;13.10;99.90
3860;DHT22;1945;52.036;8.614;2022-10-16T00:36:38;13.00;99.90
3860;DHT22;1945;52.036;8.614;2022-10-16T00:39:06;13.00;99.90
3860;DHT22;1945;52.036;8.614;2022-10-16T00:41:33;13.10;99.90
3860;DHT22;1945;52.036;8.614;2022-10-16T00:44:02;13.00;99.90
3860;DHT22;1945;52.036;8.614;2022-10-16T00:46:35;12.90;99.90
3860;DHT22;1945;52.036;8.614;2022-10-16T00:49:04;13.00;99.90
3860;DHT22;1945;52.036;8.614;2022-10-16T00:51:33;12.90;99.90
3860;DHT22;1945;52.036;8.614;2022-10-16T00:54:02;12.90;99.90
3860;DHT22;1945;52.036;8.614;2022-10-16T00:56:32;12.80;99.90
3860;DHT22;1945;52.036;8.614;2022-10-16T00:59:01;12.90;99.90
3860;DHT22;1945;52.036;8.614;2022-10-16T01:01:31;12.80;99.90
3860;DHT22;1945;52.036;8.614;2022-10-16T01:03:58;13.00;99.90
3860;DHT22;1945;52.036;8.614;2022-10-16T01:06:29;12.90;99.90
3860;DHT22;1945;52.036;8.614;2022-10-16T01:09:09;12.80;99.90
3860;DHT22;1945;52.036;8.614;2022-10-16T01:11:45;12.70;99.90
3860;DHT22;1945;52.036;8.614;2022-10-16T01:14:21;12.70;99.90
3860;DHT22;1945;52.036;8.614;2022-10-16T01:16:55;13.00;99.90
3860;DHT22;1945;52.036;8.614;2022-10-16T01:19:36;12.60;99.90
3860;DHT22;1945;52.036;8.614;2022-10-16T01:22:08;12.70;99.90
3860;DHT22;1945;52.036;8.614;2022-10-16T01:24:39;12.60;99.90
3860;DHT22;1945;52.036;8.614;2022-10-16T01:27:12;12.60;99.90
3860;DHT22;1945;52.036;8.614;2022-10-16T01:29:50;12.60;99.90
3860;DHT22;1945;52.036;8.614;2022-10-16T01:32:26;12.50;99.90
3860;DHT22;1945;52.036;8.614;2022-10-16T01:34:59;12.60;99.90
3860;DHT22;1945;52.036;8.614;2022-10-16T01:37:32;12.90;99.90
3860;DHT22;1945;52.036;8.614;2022-10-16T01:40:04;12.60;99.90
3860;DHT22;1945;52.036;8.614;2022-10-16T01:42:35;12.50;99.90
3860;DHT22;1945;52.036;8.614;2022-10-16T01:45:05;12.50;99.90
3860;DHT22;1945;52.036;8.614;2022-10-16T01:47:35;12.50;99.90
3860;DHT22;1945;52.036;8.614;2022-10-16T01:50:04;12.10;99.90
3860;DHT22;1945;52.036;8.614;2022-10-16T01:52:35;12.40;99.90
3860;DHT22;1945;52.036;8.614;2022-10-16T01:55:06;12.30;99.90
3860;DHT22;1945;52.036;8.614;2022-10-16T01:57:36;12.40;99.90
3860;DHT22;1945;52.036;8.614;2022-10-16T02:00:08;12.70;99.90
3860;DHT22;1945;52.036;8.614;2022-10-16T02:02:36;12.40;99.90
3860;DHT22;1945;52.036;8.614;2022-10-16T02:05:10;12.40;99.90
3860;DHT22;1945;52.036;8.614;2022-10-16T02:07:38;12.30;99.90
3860;DHT22;1945;52.036;8.614;2022-10-16T02:10:08;12.30;99.90
3860;DHT22;1945;52.036;8.614;2022-10-16T02:12:38;12.30;99.90
3860;DHT22;1945;52.036;8.614;2022-10-16T02:15:08;12.30;99.90
3860;DHT22;1945;52.036;8.614;2022-10-16T02:17:35;12.20;99.90
3860;DHT22;1945;52.036;8.614;2022-10-16T02:20:02;12.20;99.90
3860;DHT22;1945;52.036;8.614;2022-10-16T02:22:32;12.00;99.90
3860;DHT22;1945;52.036;8.614;2022-10-16T02:25:04;12.00;99.90
3860;DHT22;1945;52.036;8.614;2022-10-16T02:27:38;11.90;99.90
3860;DHT22;1945;52.036;8.614;2022-10-16T02:30:08;11.90;99.90
3860;DHT22;1945;52.036;8.614;2022-10-16T02:32:39;11.80;99.90
3860;DHT22;1945;52.036;8.614;2022-10-16T02:35:07;12.00;99.90
3860;DHT22;1945;52.036;8.614;2022-10-16T02:37:34;11.70;99.90
3860;DHT22;1945;52.036;8.614;2022-10-16T02:40:03;11.60;99.90
3860;DHT22;1945;52.036;8.614;2022-10-16T02:42:33;11.60;99.90
3860;DHT22;1945;52.036;8.614;2022-10-16T02:45:02;11.60;99.90
3860;DHT22;1945;52.036;8.614;2022-10-16T02:47:29;11.60;99.90
3860;DHT22;1945;52.036;8.614;2022-10-16T02:49:56;11.60;99.90
3860;DHT22;1945;52.036;8.614;2022-10-16T02:52:22;11.60;99.90
3860;DHT22;1945;52.036;8.614;2022-10-16T02:54:49;11.70;99.90
3860;DHT22;1945;52.036;8.614;2022-10-16T02:57:17;11.50;99.90
3860;DHT22;1945;52.036;8.614;2022-10-16T02:59:44;11.10;99.90
3860;DHT22;1945;52.036;8.614;2022-10-16T03:02:12;11.60;99.90
3860;DHT22;1945;52.036;8.614;2022-10-16T03:04:39;11.50;99.90
3860;DHT22;1945;52.036;8.614;2022-10-16T03:07:06;11.40;99.90
3860;DHT22;1945;52.036;8.614;2022-10-16T03:09:33;11.50;99.90
3860;DHT22;1945;52.036;8.614;2022-10-16T03:11:59;11.50;99.90
3860;DHT22;1945;52.036;8.614;2022-10-16T03:14:26;11.50;99.90
3860;DHT22;1945;52.036;8.614;2022-10-16T03:16:53;11.60;99.90
3860;DHT22;1945;52.036;8.614;2022-10-16T03:19:21;11.50;99.90
3860;DHT22;1945;52.036;8.614;2022-10-16T03:21:48;11.50;99.90
3860;DHT22;1945;52.036;8.614;2022-10-16T03:24:15;11.50;99.90
3860;DHT22;1945;52.036;8.614;2022-10-16T03:26:41;11.50;99.90
3860;DHT22;1945;52.036;8.614;2022-10-16T03:29:08;11.70;99.90
3860;DHT22;1945;52.036;8.614;2022-10-16T03:31:35;11.50;99.90
3860;DHT22;1945;52.036;8.614;2022-10-16T03:34:02;11.50;99.90
3860;DHT22;1945;52.036;8.614;2022-10-16T03:36:30;11.40;99.90
3860;DHT22;1945;52.036;8.614;2022-10-16T03:38:57;10.90;99.90
3860;DHT22;1945;52.036;8.614;2022-10-16T03:41:24;11.40;99.90
3860;DHT22;1945;52.036;8.614;2022-10-16T03:43:50;11.40;99.90
3860;DHT22;1945;52.036;8.614;2022-10-16T03:46:17;11.40;99.90
3860;DHT22;1945;52.036;8.614;2022-10-16T03:48:45;11.40;99.90
3860;DHT22;1945;52.036;8.614;2022-10-16T03:51:12;11.30;99.90
3860;DHT22;1945;52.036;8.614;2022-10-16T03:53:40;11.00;99.90
3860;DHT22;1945;52.036;8.614;2022-10-16T03:56:07;11.60;99.90
3860;DHT22;1945;52.036;8.614;2022-10-16T03:58:33;11.60;99.90
3860;DHT22;1945;52.036;8.614;2022-10-16T04:01:00;11.30;99.90
3860;DHT22;1945;52.036;8.614;2022-10-16T04:03:27;11.70;99.90
3860;DHT22;1945;52.036;8.614;2022-10-16T04:05:54;11.60;99.90
3860;DHT22;1945;52.036;8.614;2022-10-16T04:08:22;11.50;99.90
3860;DHT22;1945;52.036;8.614;2022-10-16T04:10:51;11.80;99.90
3860;DHT22;1945;52.036;8.614;2022-10-16T04:13:17;11.50;99.90
3860;DHT22;1945;52.036;8.614;2022-10-16T04:15:44;11.40;99.90
3860;DHT22;1945;52.036;8.614;2022-10-16T04:18:11;11.40;99.90
3860;DHT22;1945;52.036;8.614;2022-10-16T04:20:38;11.40;99.90
3860;DHT22;1945;52.036;8.614;2022-10-16T04:23:05;11.90;99.90
3860;DHT22;1945;52.036;8.614;2022-10-16T04:25:32;11.70;99.90
3860;DHT22;1945;52.036;8.614;2022-10-16T04:28:00;11.50;99.90
3860;DHT22;1945;52.036;8.614;2022-10-16T04:30:26;11.60;99.90
3860;DHT22;1945;52.036;8.614;2022-10-16T04:32:53;11.60;99.90
3860;DHT22;1945;52.036;8.614;2022-10-16T04:35:21;11.70;99.90
3860;DHT22;1945;52.036;8.614;2022-10-16T04:37:48;11.70;99.90
3860;DHT22;1945;52.036;8.614;2022-10-16T04:40:15;11.80;99.90
3860;DHT22;1945;52.036;8.614;2022-10-16T04:42:42;11.80;99.90
3860;DHT22;1945;52.036;8.614;2022-10-16T04:45:11;11.90;99.90
3860;DHT22;1945;52.036;8.614;2022-10-16T04:47:37;11.90;99.90
3860;DHT22;1945;52.036;8.614;2022-10-16T04:50:05;12.00;99.90
3860;DHT22;1945;52.036;8.614;2022-10-16T04:52:32;12.20;99.90
3860;DHT22;1945;52.036;8.614;2022-10-16T04:54:59;12.20;99.90
3860;DHT22;1945;52.036;8.614;2022-10-16T04:57:28;12.10;99.90
3860;DHT22;1945;52.036;8.614;2022-10-16T04:59:55;12.20;99.90
3860;DHT22;1945;52.036;8.614;2022-10-16T05:02:23;12.30;99.90
3860;DHT22;1945;52.036;8.614;2022-10-16T05:04:50;12.30;99.90
3860;DHT22;1945;52.036;8.614;2022-10-16T05:07:16;12.60;99.90
3860;DHT22;1945;52.036;8.614;2022-10-16T05:09:43;12.40;99.90
3860;DHT22;1945;52.036;8.614;2022-10-16T05:12:10;12.40;99.90
3860;DHT22;1945;52.036;8.614;2022-10-16T05:14:37;12.50;99.90
3860;DHT22;1945;52.036;8.614;2022-10-16T05:17:04;12.50;99.90
3860;DHT22;1945;52.036;8.614;2022-10-16T05:19:32;12.50;99.90
3860;DHT22;1945;52.036;8.614;2022-10-16T05:21:59;12.60;99.90
3860;DHT22;1945;52.036;8.614;2022-10-16T05:24:26;12.60;99.90
3860;DHT22;1945;52.036;8.614;2022-10-16T05:26:52;12.50;99.90
3860;DHT22;1945;52.036;8.614;2022-10-16T05:29:19;12.50;99.90
3860;DHT22;1945;52.036;8.614;2022-10-16T05:31:46;12.50;99.90
3860;DHT22;1945;52.036;8.614;2022-10-16T05:34:15;12.20;99.90
3860;DHT22;1945;52.036;8.614;2022-10-16T05:36:44;12.60;99.90
3860;DHT22;1945;52.036;8.614;2022-10-16T05:39:11;12.40;99.90
3860;DHT22;1945;52.036;8.614;2022-10-16T05:41:38;12.50;99.90
3860;DHT22;1945;52.036;8.614;2022-10-16T05:44:05;12.40;99.90
3860;DHT22;1945;52.036;8.614;2022-10-16T05:46:32;12.30;99.90
3860;DHT22;1945;52.036;8.614;2022-10-16T05:48:59;12.30;99.90
3860;DHT22;1945;52.036;8.614;2022-10-16T05:51:25;12.20;99.90
3860;DHT22;1945;52.036;8.614;2022-10-16T05:53:54;12.60;99.90
3860;DHT22;1945;52.036;8.614;2022-10-16T05:56:20;12.20;99.90
3860;DHT22;1945;52.036;8.614;2022-10-16T05:58:47;12.30;99.90
3860;DHT22;1945;52.036;8.614;2022-10-16T06:01:16;12.40;99.90
3860;DHT22;1945;52.036;8.614;2022-10-16T06:03:43;12.30;99.90
3860;DHT22;1945;52.036;8.614;2022-10-16T06:06:11;12.70;99.90
3860;DHT22;1945;52.036;8.614;2022-10-16T06:08:39;12.30;99.90
3860;DHT22;1945;52.036;8.614;2022-10-16T06:11:09;12.30;99.90
3860;DHT22;1945;52.036;8.614;2022-10-16T06:13:36;12.30;99.90
3860;DHT22;1945;52.036;8.614;2022-10-16T06:16:05;12.40;99.90
3860;DHT22;1945;52.036;8.614;2022-10-16T06:18:32;12.40;99.90
3860;DHT22;1945;52.036;8.614;2022-10-16T06:20:58;12.50;99.90
3860;DHT22;1945;52.036;8.614;2022-10-16T06:23:25;12.50;99.90
3860;DHT22;1945;52.036;8.614;2022-10-16T06:25:52;12.90;99.90
3860;DHT22;1945;52.036;8.614;2022-10-16T06:28:20;12.70;99.90
3860;DHT22;1945;52.036;8.614;2022-10-16T06:30:47;13.00;99.90
3860;DHT22;1945;52.036;8.614;2022-10-16T06:33:14;12.80;99.90
3860;DHT22;1945;52.036;8.614;2022-10-16T06:35:40;12.90;99.90
3860;DHT22;1945;52.036;8.614;2022-10-16T06:38:07;13.00;99.90
3860;DHT22;1945;52.036;8.614;2022-10-16T06:40:34;13.10;99.90
3860;DHT22;1945;52.036;8.614;2022-10-16T06:43:01;13.20;99.90
3860;DHT22;1945;52.036;8.614;2022-10-16T06:45:29;13.20;99.90
3860;DHT22;1945;52.036;8.614;2022-10-16T06:47:56;13.20;99.90
3860;DHT22;1945;52.036;8.614;2022-10-16T06:50:23;13.20;99.90
3860;DHT22;1945;52.036;8.614;2022-10-16T06:52:50;13.20;99.90
3860;DHT22;1945;52.036;8.614;2022-10-16T06:55:16;13.30;99.90
3860;DHT22;1945;52.036;8.614;2022-10-16T06:57:43;13.30;99.90
3860;DHT22;1945;52.036;8.614;2022-10-16T07:00:11;13.30;99.90
3860;DHT22;1945;52.036;8.614;2022-10-16T07:02:39;13.40;99.90
3860;DHT22;1945;52.036;8.614;2022-10-16T07:05:06;13.50;99.90
3860;DHT22;1945;52.036;8.614;2022-10-16T07:07:39;13.50;99.90
3860;DHT22;1945;52.036;8.614;2022-10-16T07:10:08;13.50;99.90
3860;DHT22;1945;52.036;8.614;2022-10-16T07:12:37;14.00;99.90
3860;DHT22;1945;52.036;8.614;2022-10-16T07:15:05;14.10;99.90
3860;DHT22;1945;52.036;8.614;2022-10-16T07:17:32;14.10;99.90
3860;DHT22;1945;52.036;8.614;2022-10-16T07:20:01;14.30;99.90
3860;DHT22;1945;52.036;8.614;2022-10-16T07:22:28;14.00;99.90
3860;DHT22;1945;52.036;8.614;2022-10-16T07:25:01;14.30;99.90
3860;DHT22;1945;52.036;8.614;2022-10-16T07:27:28;14.40;99.90
3860;DHT22;1945;52.036;8.614;2022-10-16T07:29:55;14.50;99.90
3860;DHT22;1945;52.036;8.614;2022-10-16T07:32:21;14.40;99.90
3860;DHT22;1945;52.036;8.614;2022-10-16T07:34:49;14.50;99.90
3860;DHT22;1945;52.036;8.614;2022-10-16T07:37:17;14.60;99.90
3860;DHT22;1945;52.036;8.614;2022-10-16T07:39:44;14.90;99.90
3860;DHT22;1945;52.036;8.614;2022-10-16T07:42:11;14.80;99.90
3860;DHT22;1945;52.036;8.614;2022-10-16T07:44:39;15.10;99.90
3860;DHT22;1945;52.036;8.614;2022-10-16T07:47:08;15.40;57.10
3860;DHT22;1945;52.036;8.614;2022-10-16T07:49:37;15.60;1.00
3860;DHT22;1945;52.036;8.614;2022-10-16T07:52:06;15.20;1.00
3860;DHT22;1945;52.036;8.614;2022-10-16T07:54:34;15.00;1.00
3860;DHT22;1945;52.036;8.614;2022-10-16T07:57:01;15.20;1.00
3860;DHT22;1945;52.036;8.614;2022-10-16T07:59:28;15.10;1.00
3860;DHT22;1945;52.036;8.614;2022-10-16T08:01:55;14.90;1.00
3860;DHT22;1945;52.036;8.614;2022-10-16T08:04:21;15.00;17.10
3860;DHT22;1945;52.036;8.614;2022-10-16T08:06:48;14.70;1.00
3860;DHT22;1945;52.036;8.614;2022-10-16T08:09:15;15.00;10.10
3860;DHT22;1945;52.036;8.614;2022-10-16T08:11:43;15.20;1.00
3860;DHT22;1945;52.036;8.614;2022-10-16T08:14:10;15.40;1.00
3860;DHT22;1945;52.036;8.614;2022-10-16T08:16:37;15.60;1.00
3860;DHT22;1945;52.036;8.614;2022-10-16T08:19:12;15.60;1.00
3860;DHT22;1945;52.036;8.614;2022-10-16T08:21:39;15.70;1.00
3860;DHT22;1945;52.036;8.614;2022-10-16T08:24:06;15.80;1.00
3860;DHT22;1945;52.036;8.614;2022-10-16T08:26:32;15.90;1.00
3860;DHT22;1945;52.036;8.614;2022-10-16T08:29:01;16.10;1.00
3860;DHT22;1945;52.036;8.614;2022-10-16T08:31:27;16.00;1.00
3860;DHT22;1945;52.036;8.614;2022-10-16T08:33:54;15.90;1.00
3860;DHT22;1945;52.036;8.614;2022-10-16T08:36:28;15.90;1.00
3860;DHT22;1945;52.036;8.614;2022-10-16T08:38:56;16.20;1.00
3860;DHT22;1945;52.036;8.614;2022-10-16T08:44:59;16.00;1.00
3860;DHT22;1945;52.036;8.614;2022-10-16T08:47:39;16.10;1.00
3860;DHT22;1945;52.036;8.614;2022-10-16T08:50:13;16.10;1.00
3860;DHT22;1945;52.036;8.614;2022-10-16T08:52:43;16.10;1.00
3860;DHT22;1945;52.036;8.614;2022-10-16T08:55:27;16.10;1.00
3860;DHT22;1945;52.036;8.614;2022-10-16T08:57:57;16.40;1.00
3860;DHT22;1945;52.036;8.614;2022-10-16T09:00:26;16.20;1.00
3860;DHT22;1945;52.036;8.614;2022-10-16T09:03:02;16.30;1.00
3860;DHT22;1945;52.036;8.614;2022-10-16T09:05:50;16.30;1.00
3860;DHT22;1945;52.036;8.614;2022-10-16T09:08:27;16.40;1.00
3860;DHT22;1945;52.036;8.614;2022-10-16T09:10:59;16.40;1.00
3860;DHT22;1945;52.036;8.614;2022-10-16T09:13:29;16.40;1.00
3860;DHT22;1945;52.036;8.614;2022-10-16T09:16:10;16.40;1.00
3860;DHT22;1945;52.036;8.614;2022-10-16T09:18:44;16.40;1.00
3860;DHT22;1945;52.036;8.614;2022-10-16T09:21:18;16.50;1.00
3860;DHT22;1945;52.036;8.614;2022-10-16T09:23:46;16.50;99.90
3860;DHT22;1945;52.036;8.614;2022-10-16T09:26:15;16.50;99.90
3860;DHT22;1945;52.036;8.614;2022-10-16T09:28:43;16.60;1.00
3860;DHT22;1945;52.036;8.614;2022-10-16T09:31:16;16.50;99.90
3860;DHT22;1945;52.036;8.614;2022-10-16T09:33:46;16.60;1.00
3860;DHT22;1945;52.036;8.614;2022-10-16T09:36:14;16.60;99.90
3860;DHT22;1945;52.036;8.614;2022-10-16T09:38:41;16.70;99.90
3860;DHT22;1945;52.036;8.614;2022-10-16T09:41:15;16.80;99.90
3860;DHT22;1945;52.036;8.614;2022-10-16T09:43:48;16.80;99.90
3860;DHT22;1945;52.036;8.614;2022-10-16T09:46:25;16.90;99.90
3860;DHT22;1945;52.036;8.614;2022-10-16T09:48:56;16.90;97.80
3860;DHT22;1945;52.036;8.614;2022-10-16T09:51:25;16.90;99.90
3860;DHT22;1945;52.036;8.614;2022-10-16T09:53:56;17.00;99.90
3860;DHT22;1945;52.036;8.614;2022-10-16T09:56:25;17.10;99.90
3860;DHT22;1945;52.036;8.614;2022-10-16T09:58:55;17.30;99.90
3860;DHT22;1945;52.036;8.614;2022-10-16T10:01:28;17.10;64.30
3860;DHT22;1945;52.036;8.614;2022-10-16T10:03:57;17.10;3.60
3860;DHT22;1945;52.036;8.614;2022-10-16T10:06:28;17.10;99.90
3860;DHT22;1945;52.036;8.614;2022-10-16T10:09:04;17.30;99.90
3860;DHT22;1945;52.036;8.614;2022-10-16T10:11:40;17.30;88.90
3860;DHT22;1945;52.036;8.614;2022-10-16T10:14:15;17.20;1.00
3860;DHT22;1945;52.036;8.614;2022-10-16T10:16:44;17.10;1.00
3860;DHT22;1945;52.036;8.614;2022-10-16T10:19:18;16.90;1.00
3860;DHT22;1945;52.036;8.614;2022-10-16T10:21:46;17.40;1.00
3860;DHT22;1945;52.036;8.614;2022-10-16T10:24:15;17.10;1.00
3860;DHT22;1945;52.036;8.614;2022-10-16T10:26:48;17.20;1.00
3860;DHT22;1945;52.036;8.614;2022-10-16T10:29:24;17.30;1.00
3860;DHT22;1945;52.036;8.614;2022-10-16T10:32:04;17.40;1.00
3860;DHT22;1945;52.036;8.614;2022-10-16T10:34:43;17.70;1.00
3860;DHT22;1945;52.036;8.614;2022-10-16T10:37:40;17.60;99.90
3860;DHT22;1945;52.036;8.614;2022-10-16T10:40:22;17.70;1.00
3860;DHT22;1945;52.036;8.614;2022-10-16T10:42:57;17.70;99.90
3860;DHT22;1945;52.036;8.614;2022-10-16T10:45:27;17.50;99.90
3860;DHT22;1945;52.036;8.614;2022-10-16T10:48:06;17.40;99.90
3860;DHT22;1945;52.036;8.614;2022-10-16T10:50:52;17.50;1.00
3860;DHT22;1945;52.036;8.614;2022-10-16T10:53:33;17.40;99.90
3860;DHT22;1945;52.036;8.614;2022-10-16T10:56:14;17.50;1.00
3860;DHT22;1945;52.036;8.614;2022-10-16T10:59:02;17.50;99.90
3860;DHT22;1945;52.036;8.614;2022-10-16T11:01:38;17.80;99.90
3860;DHT22;1945;52.036;8.614;2022-10-16T11:04:37;17.30;99.90
3860;DHT22;1945;52.036;8.614;2022-10-16T11:07:16;17.20;99.90
3860;DHT22;1945;52.036;8.614;2022-10-16T11:09:47;17.30;1.00
3860;DHT22;1945;52.036;8.614;2022-10-16T11:12:17;17.20;99.90
3860;DHT22;1945;52.036;8.614;2022-10-16T11:14:48;17.30;1.00
3860;DHT22;1945;52.036;8.614;2022-10-16T11:17:21;17.30;99.90
3860;DHT22;1945;52.036;8.614;2022-10-16T11:19:55;17.50;99.90
3860;DHT22;1945;52.036;8.614;2022-10-16T11:22:26;17.60;99.90
3860;DHT22;1945;52.036;8.614;2022-10-16T11:25:00;17.70;99.90
3860;DHT22;1945;52.036;8.614;2022-10-16T11:27:35;17.80;99.90
3860;DHT22;1945;52.036;8.614;2022-10-16T11:30:05;18.00;99.90
3860;DHT22;1945;52.036;8.614;2022-10-16T11:32:39;18.00;99.90
3860;DHT22;1945;52.036;8.614;2022-10-16T11:35:17;17.90;99.90
3860;DHT22;1945;52.036;8.614;2022-10-16T11:37:46;18.00;99.90
3860;DHT22;1945;52.036;8.614;2022-10-16T11:40:22;18.10;99.90
3860;DHT22;1945;52.036;8.614;2022-10-16T11:42:54;18.20;99.90
3860;DHT22;1945;52.036;8.614;2022-10-16T11:45:34;18.20;92.00
3860;DHT22;1945;52.036;8.614;2022-10-16T11:48:12;18.20;5.00
3860;DHT22;1945;52.036;8.614;2022-10-16T11:50:45;18.30;99.90
3860;DHT22;1945;52.036;8.614;2022-10-16T11:53:23;18.10;40.70
3860;DHT22;1945;52.036;8.614;2022-10-16T11:55:50;18.00;1.00
3860;DHT22;1945;52.036;8.614;2022-10-16T11:58:23;18.10;99.90
3860;DHT22;1945;52.036;8.614;2022-10-16T12:00:58;18.10;5.20
3860;DHT22;1945;52.036;8.614;2022-10-16T12:03:30;18.00;56.00
3860;DHT22;1945;52.036;8.614;2022-10-16T12:06:11;17.90;1.00
3860;DHT22;1945;52.036;8.614;2022-10-16T12:08:43;18.00;1.00
3860;DHT22;1945;52.036;8.614;2022-10-16T12:11:23;17.60;22.70
3860;DHT22;1945;52.036;8.614;2022-10-16T12:14:05;17.50;99.90
3860;DHT22;1945;52.036;8.614;2022-10-16T12:16:32;17.40;99.90
3860;DHT22;1945;52.036;8.614;2022-10-16T12:19:13;17.40;99.90
3860;DHT22;1945;52.036;8.614;2022-10-16T12:21:44;17.40;99.90
3860;DHT22;1945;52.036;8.614;2022-10-16T12:24:21;17.50;99.90
3860;DHT22;1945;52.036;8.614;2022-10-16T12:26:52;17.60;37.50
3860;DHT22;1945;52.036;8.614;2022-10-16T12:29:30;17.60;93.90
3860;DHT22;1945;52.036;8.614;2022-10-16T12:31:58;17.60;1.00
3860;DHT22;1945;52.036;8.614;2022-10-16T12:34:28;17.90;1.00
3860;DHT22;1945;52.036;8.614;2022-10-16T12:37:09;17.90;1.00
3860;DHT22;1945;52.036;8.614;2022-10-16T12:39:37;18.00;1.00
3860;DHT22;1945;52.036;8.614;2022-10-16T12:42:06;18.00;1.00
3860;DHT22;1945;52.036;8.614;2022-10-16T12:44:44;18.10;1.00
3860;DHT22;1945;52.036;8.614;2022-10-16T12:47:20;18.20;1.00
3860;DHT22;1945;52.036;8.614;2022-10-16T12:49:50;18.10;1.00
3860;DHT22;1945;52.036;8.614;2022-10-16T12:52:26;18.20;1.00
3860;DHT22;1945;52.036;8.614;2022-10-16T12:54:56;18.10;1.00
3860;DHT22;1945;52.036;8.614;2022-10-16T12:57:55;18.20;1.00
3860;DHT22;1945;52.036;8.614;2022-10-16T13:00:31;18.30;1.00
3860;DHT22;1945;52.036;8.614;2022-10-16T13:05:59;18.30;1.00
3860;DHT22;1945;52.036;8.614;2022-10-16T13:08:46;18.30;27.80
3860;DHT22;1945;52.036;8.614;2022-10-16T13:11:23;18.40;64.20
3860;DHT22;1945;52.036;8.614;2022-10-16T13:14:21;18.40;1.00
3860;DHT22;1945;52.036;8.614;2022-10-16T13:17:00;18.40;1.00
3860;DHT22;1945;52.036;8.614;2022-10-16T13:19:38;18.40;1.00
3860;DHT22;1945;52.036;8.614;2022-10-16T13:22:16;18.40;11.90
3860;DHT22;1945;52.036;8.614;2022-10-16T13:25:05;18.70;1.00
3860;DHT22;1945;52.036;8.614;2022-10-16T13:27:43;18.60;1.00
3860;DHT22;1945;52.036;8.614;2022-10-16T13:30:16;18.30;1.00
3860;DHT22;1945;52.036;8.614;2022-10-16T13:32:45;18.40;1.00
3860;DHT22;1945;52.036;8.614;2022-10-16T13:35:22;18.30;1.00
3860;DHT22;1945;52.036;8.614;2022-10-16T13:37:50;18.30;1.00
3860;DHT22;1945;52.036;8.614;2022-10-16T13:40:23;18.20;1.00
3860;DHT22;1945;52.036;8.614;2022-10-16T13:42:53;18.30;21.80
3860;DHT22;1945;52.036;8.614;2022-10-16T13:45:24;18.30;1.00
3860;DHT22;1945;52.036;8.614;2022-10-16T13:48:01;18.30;1.00
3860;DHT22;1945;52.036;8.614;2022-10-16T13:50:29;18.20;1.00
3860;DHT22;1945;52.036;8.614;2022-10-16T13:53:04;18.30;1.00
3860;DHT22;1945;52.036;8.614;2022-10-16T13:55:44;18.20;1.00
3860;DHT22;1945;52.036;8.614;2022-10-16T13:58:21;18.50;1.00
3860;DHT22;1945;52.036;8.614;2022-10-16T14:00:57;18.30;1.00
3860;DHT22;1945;52.036;8.614;2022-10-16T14:03:25;18.30;1.00
3860;DHT22;1945;52.036;8.614;2022-10-16T14:05:56;18.20;1.00
3860;DHT22;1945;52.036;8.614;2022-10-16T14:08:31;18.20;1.00
3860;DHT22;1945;52.036;8.614;2022-10-16T14:11:01;18.20;1.00
3860;DHT22;1945;52.036;8.614;2022-10-16T14:13:32;18.20;1.00
3860;DHT22;1945;52.036;8.614;2022-10-16T14:16:06;18.10;1.00
3860;DHT22;1945;52.036;8.614;2022-10-16T14:18:34;18.00;1.00
3860;DHT22;1945;52.036;8.614;2022-10-16T14:21:13;18.00;33.00
3860;DHT22;1945;52.036;8.614;2022-10-16T14:23:41;18.00;1.00
3860;DHT22;1945;52.036;8.614;2022-10-16T14:26:17;17.90;1.00
3860;DHT22;1945;52.036;8.614;2022-10-16T14:28:47;17.80;1.00
3860;DHT22;1945;52.036;8.614;2022-10-16T14:31:28;18.10;99.90
3860;DHT22;1945;52.036;8.614;2022-10-16T14:33:56;17.80;99.90
3860;DHT22;1945;52.036;8.614;2022-10-16T14:36:23;17.80;99.90
3860;DHT22;1945;52.036;8.614;2022-10-16T14:38:58;17.70;99.90
3860;DHT22;1945;52.036;8.614;2022-10-16T14:41:28;17.70;99.90
3860;DHT22;1945;52.036;8.614;2022-10-16T14:43:56;17.70;99.90
3860;DHT22;1945;52.036;8.614;2022-10-16T14:46:31;17.70;99.90
3860;DHT22;1945;52.036;8.614;2022-10-16T14:49:03;17.70;99.90
3860;DHT22;1945;52.036;8.614;2022-10-16T14:51:31;17.60;99.90
3860;DHT22;1945;52.036;8.614;2022-10-16T14:53:58;17.70;99.90
3860;DHT22;1945;52.036;8.614;2022-10-16T14:56:30;17.70;99.90
3860;DHT22;1945;52.036;8.614;2022-10-16T14:58:57;17.50;99.90
3860;DHT22;1945;52.036;8.614;2022-10-16T15:01:24;17.70;99.90
3860;DHT22;1945;52.036;8.614;2022-10-16T15:03:51;17.30;1.00
3860;DHT22;1945;52.036;8.614;2022-10-16T15:06:20;17.30;99.90
3860;DHT22;1945;52.036;8.614;2022-10-16T15:08:55;17.30;1.00
3860;DHT22;1945;52.036;8.614;2022-10-16T15:11:22;17.30;1.00
3860;DHT22;1945;52.036;8.614;2022-10-16T15:13:53;17.30;1.00
3860;DHT22;1945;52.036;8.614;2022-10-16T15:16:26;17.40;1.00
3860;DHT22;1945;52.036;8.614;2022-10-16T15:18:53;17.40;1.00
3860;DHT22;1945;52.036;8.614;2022-10-16T15:21:24;17.50;1.00
3860;DHT22;1945;52.036;8.614;2022-10-16T15:23:51;17.40;1.00
3860;DHT22;1945;52.036;8.614;2022-10-16T15:26:18;17.40;1.00
3860;DHT22;1945;52.036;8.614;2022-10-16T15:28:52;17.30;1.00
3860;DHT22;1945;52.036;8.614;2022-10-16T15:31:20;17.30;1.00
3860;DHT22;1945;52.036;8.614;2022-10-16T15:33:50;17.30;1.00
3860;DHT22;1945;52.036;8.614;2022-10-16T15:36:25;17.30;99.90
3860;DHT22;1945;52.036;8.614;2022-10-16T15:38:52;17.20;1.00
3860;DHT22;1945;52.036;8.614;2022-10-16T15:41:19;17.20;1.00
3860;DHT22;1945;52.036;8.614;2022-10-16T15:43:54;17.10;1.00
3860;DHT22;1945;52.036;8.614;2022-10-16T15:46:22;17.10;1.00
3860;DHT22;1945;52.036;8.614;2022-10-16T15:48:50;17.00;1.00
3860;DHT22;1945;52.036;8.614;2022-10-16T15:51:26;16.90;1.00
3860;DHT22;1945;52.036;8.614;2022-10-16T15:53:55;16.80;1.00
3860;DHT22;1945;52.036;8.614;2022-10-16T15:56:23;16.70;1.00
3860;DHT22;1945;52.036;8.614;2022-10-16T15:58:51;16.50;56.90
3860;DHT22;1945;52.036;8.614;2022-10-16T16:01:20;16.40;1.00
3860;DHT22;1945;52.036;8.614;2022-10-16T16:03:47;17.00;1.00
3860;DHT22;1945;52.036;8.614;2022-10-16T16:06:14;16.40;1.00
3860;DHT22;1945;52.036;8.614;2022-10-16T16:08:41;16.40;1.00
3860;DHT22;1945;52.036;8.614;2022-10-16T16:11:10;16.30;1.00
3860;DHT22;1945;52.036;8.614;2022-10-16T16:13:39;16.30;72.60
3860;DHT22;1945;52.036;8.614;2022-10-16T16:16:07;16.30;99.90
3860;DHT22;1945;52.036;8.614;2022-10-16T16:18:36;16.20;99.90
3860;DHT22;1945;52.036;8.614;2022-10-16T16:21:04;16.20;99.90
3860;DHT22;1945;52.036;8.614;2022-10-16T16:23:31;16.20;99.90
3860;DHT22;1945;52.036;8.614;2022-10-16T16:26:06;16.20;99.90
3860;DHT22;1945;52.036;8.614;2022-10-16T16:28:33;16.00;1.00
3860;DHT22;1945;52.036;8.614;2022-10-16T16:31:00;16.00;99.90
3860;DHT22;1945;52.036;8.614;2022-10-16T16:33:27;15.90;99.90
3860;DHT22;1945;52.036;8.614;2022-10-16T16:35:59;15.90;99.90